Time;durP1;ratioP1;P1;durP2;ratioP2;P2;SDS_P1;SDS_P2;PMS_P1;PMS_P2;Temp;Humidity;BMP_temperature;BMP_pressure;BME280_temperature;BME280_humidity;BME280_pressure;Samples;Min_cycle;Max_cycle;Signal;HPM_P1;HPM_P2
2021/08/05 00:01:42;;;;;;;12.70;10.27;;;;;;;;;;4988694;28;20050;-70
2021/08/05 00:04:08;;;;;;;13.07;9.93;;;;;;;;;;5023820;28;20031;-70
2021/08/05 00:06:34;;;;;;;12.73;10.80;;;;;;;;;;4984421;28;20030;-70
2021/08/05 00:09:00;;;;;;;13.85;9.60;;;;;;;;;;4992181;28;20097;-70
2021/08/05 00:11:26;;;;;;;12.50;9.52;;;;;;;;;;4991970;28;20041;-70
2021/08/05 00:13:52;;;;;;;15.10;9.95;;;;;;;;;;4990602;28;20452;-70
2021/08/05 00:16:18;;;;;;;15.05;10.75;;;;;;;;;;4991067;28;20030;-70
2021/08/05 00:18:44;;;;;;;13.10;10.73;;;;;;;;;;4992171;28;20480;-70
2021/08/05 00:21:10;;;;;;;15.05;11.57;;;;;;;;;;5023044;28;20354;-70
2021/08/05 00:23:36;;;;;;;15.80;11.93;;;;;;;;;;4991505;28;20042;-70
2021/08/05 00:26:02;;;;;;;13.52;10.63;;;;;;;;;;5022802;28;20030;-70
2021/08/05 00:28:28;;;;;;;14.85;11.82;;;;;;;;;;4990441;28;20038;-70
2021/08/05 00:30:54;;;;;;;17.13;12.27;;;;;;;;;;4994779;28;20388;-70
2021/08/05 00:33:20;;;;;;;15.55;12.30;;;;;;;;;;4992699;28;20037;-70
2021/08/05 00:35:46;;;;;;;14.80;12.20;;;;;;;;;;4991504;28;20029;-70
2021/08/05 00:38:12;;;;;;;15.75;12.90;;;;;;;;;;4991247;28;20030;-70
2021/08/05 00:40:38;;;;;;;16.27;13.00;;;;;;;;;;4990335;28;20030;-70
2021/08/05 00:43:04;;;;;;;16.33;13.43;;;;;;;;;;5022636;28;20023;-70
2021/08/05 00:45:30;;;;;;;21.95;15.38;;;;;;;;;;5001139;28;20495;-70
2021/08/05 00:47:56;;;;;;;19.70;14.77;;;;;;;;;;5029841;28;20029;-70
2021/08/05 00:50:22;;;;;;;17.83;13.35;;;;;;;;;;4991168;28;20109;-70
2021/08/05 00:52:48;;;;;;;18.83;14.20;;;;;;;;;;4989559;28;20041;-70
2021/08/05 00:55:14;;;;;;;17.77;13.57;;;;;;;;;;5021193;28;20033;-70
2021/08/05 00:57:40;;;;;;;19.35;14.32;;;;;;;;;;5033022;28;20387;-70
2021/08/05 01:00:06;;;;;;;16.55;13.45;;;;;;;;;;4996057;28;20522;-70
2021/08/05 01:02:35;;;;;;;21.83;14.07;;;;;;;;;;4991587;28;20034;-70
2021/08/05 01:05:01;;;;;;;19.40;14.93;;;;;;;;;;4993954;28;20387;-70
2021/08/05 01:07:33;;;;;;;18.10;14.43;;;;;;;;;;4990058;28;20543;-70
2021/08/05 01:10:02;;;;;;;20.00;15.15;;;;;;;;;;4993863;28;20037;-70
2021/08/05 01:12:28;;;;;;;20.87;15.60;;;;;;;;;;4990535;28;20030;-70
2021/08/05 01:15:06;;;;;;;22.48;15.60;;;;;;;;;;4991352;28;20580;-70
2021/08/05 01:17:35;;;;;;;20.88;16.42;;;;;;;;;;4987871;28;20033;-71
2021/08/05 01:20:02;;;;;;;20.77;16.05;;;;;;;;;;4994619;28;20022;-70
2021/08/05 01:22:53;;;;;;;20.13;17.10;;;;;;;;;;5004379;28;20036;-70
2021/08/05 01:25:24;;;;;;;20.90;15.15;;;;;;;;;;4999612;28;20038;-70
2021/08/05 01:27:51;;;;;;;18.50;15.38;;;;;;;;;;4992542;28;20036;-70
2021/08/05 01:30:17;;;;;;;18.75;15.43;;;;;;;;;;4989049;28;20133;-70
2021/08/05 01:32:44;;;;;;;16.55;14.32;;;;;;;;;;5008008;28;20101;-70
2021/08/05 01:35:10;;;;;;;19.35;14.75;;;;;;;;;;5007747;28;20026;-70
2021/08/05 01:37:36;;;;;;;19.67;14.85;;;;;;;;;;4992930;28;20026;-70
2021/08/05 01:40:02;;;;;;;18.52;14.85;;;;;;;;;;4990660;28;20070;-70
2021/08/05 01:42:30;;;;;;;15.73;13.85;;;;;;;;;;4989203;28;20027;-70
2021/08/05 01:44:56;;;;;;;20.08;14.45;;;;;;;;;;4990425;28;20030;-70
2021/08/05 01:47:22;;;;;;;19.42;15.43;;;;;;;;;;4989699;28;20050;-70
2021/08/05 01:49:49;;;;;;;25.17;15.77;;;;;;;;;;5000907;28;20038;-70
2021/08/05 01:52:17;;;;;;;19.17;15.82;;;;;;;;;;4990123;28;20415;-70
2021/08/05 01:54:43;;;;;;;22.50;16.35;;;;;;;;;;5000535;28;20105;-70
2021/08/05 01:57:09;;;;;;;20.77;14.88;;;;;;;;;;4991565;28;20567;-70
2021/08/05 01:59:36;;;;;;;17.17;13.50;;;;;;;;;;4990150;28;20039;-70
2021/08/05 02:02:02;;;;;;;18.10;15.88;;;;;;;;;;4989836;28;20026;-70
2021/08/05 02:04:53;;;;;;;20.90;16.65;;;;;;;;;;5026282;28;20026;-70
2021/08/05 02:07:24;;;;;;;19.45;15.30;;;;;;;;;;4992740;28;20042;-70
2021/08/05 02:09:50;;;;;;;20.17;16.00;;;;;;;;;;5018653;28;20054;-70
2021/08/05 02:12:17;;;;;;;20.48;16.02;;;;;;;;;;4984730;28;20468;-70
2021/08/05 02:14:44;;;;;;;21.17;15.48;;;;;;;;;;4989834;28;20092;-70
2021/08/05 02:17:10;;;;;;;19.67;16.33;;;;;;;;;;4989580;28;20034;-70
2021/08/05 02:19:36;;;;;;;20.95;15.77;;;;;;;;;;4989505;28;20038;-70
2021/08/05 02:22:03;;;;;;;20.58;15.82;;;;;;;;;;4989385;28;20072;-70
2021/08/05 02:24:30;;;;;;;19.63;15.57;;;;;;;;;;4996756;28;20125;-70
2021/08/05 02:26:58;;;;;;;21.67;15.93;;;;;;;;;;4990061;28;20022;-70
2021/08/05 02:29:25;;;;;;;22.52;15.90;;;;;;;;;;4989455;28;20042;-70
2021/08/05 02:31:51;;;;;;;21.08;16.33;;;;;;;;;;4990086;28;20026;-70
2021/08/05 02:34:18;;;;;;;19.25;16.00;;;;;;;;;;5020828;28;20042;-70
2021/08/05 02:36:44;;;;;;;21.95;15.73;;;;;;;;;;4980939;28;20420;-70
2021/08/05 02:39:10;;;;;;;19.67;15.40;;;;;;;;;;4988584;28;20105;-70
2021/08/05 02:41:36;;;;;;;21.15;14.38;;;;;;;;;;4988250;28;20475;-70
2021/08/05 02:44:03;;;;;;;21.02;15.98;;;;;;;;;;4989002;28;20041;-70
2021/08/05 02:46:30;;;;;;;21.50;17.23;;;;;;;;;;4989227;28;20076;-70
2021/08/05 02:48:56;;;;;;;23.98;19.40;;;;;;;;;;4997971;28;20032;-70
2021/08/05 02:51:23;;;;;;;23.25;17.42;;;;;;;;;;4989246;28;20448;-70
2021/08/05 02:53:50;;;;;;;23.05;18.52;;;;;;;;;;4988541;28;20046;-70
2021/08/05 02:56:16;;;;;;;25.95;19.85;;;;;;;;;;4987676;28;20416;-70
2021/08/05 02:58:43;;;;;;;27.48;20.00;;;;;;;;;;4990785;28;20110;-70
2021/08/05 03:01:09;;;;;;;25.77;19.80;;;;;;;;;;4992968;28;20396;-70
2021/08/05 03:03:35;;;;;;;30.08;22.48;;;;;;;;;;4988880;28;20035;-70
2021/08/05 03:06:02;;;;;;;27.80;21.48;;;;;;;;;;4989225;28;20056;-70
2021/08/05 03:08:27;;;;;;;30.05;22.88;;;;;;;;;;4991573;28;20026;-70
2021/08/05 03:10:53;;;;;;;30.98;23.45;;;;;;;;;;4981352;28;20622;-70
2021/08/05 03:13:19;;;;;;;29.50;22.45;;;;;;;;;;5000075;28;20443;-70
2021/08/05 03:15:45;;;;;;;30.50;23.42;;;;;;;;;;4989015;28;20433;-70
2021/08/05 03:18:11;;;;;;;31.85;23.17;;;;;;;;;;5017588;28;20061;-70
2021/08/05 03:20:37;;;;;;;32.13;25.27;;;;;;;;;;4986413;28;20106;-70
2021/08/05 03:23:03;;;;;;;36.67;25.02;;;;;;;;;;4993993;28;20092;-70
2021/08/05 03:25:29;;;;;;;36.72;26.77;;;;;;;;;;4990108;28;20030;-70
2021/08/05 03:27:55;;;;;;;35.72;25.40;;;;;;;;;;4989083;28;20026;-70
2021/08/05 03:30:21;;;;;;;31.45;25.42;;;;;;;;;;4984826;28;20029;-70
2021/08/05 03:32:47;;;;;;;35.38;26.10;;;;;;;;;;4987475;28;20065;-70
2021/08/05 03:35:14;;;;;;;33.72;26.13;;;;;;;;;;5020110;28;20496;-70
2021/08/05 03:37:40;;;;;;;38.05;26.33;;;;;;;;;;4988848;28;20026;-70
2021/08/05 03:40:06;;;;;;;35.08;26.30;;;;;;;;;;4994503;28;20388;-70
2021/08/05 03:42:32;;;;;;;36.65;28.13;;;;;;;;;;4989758;28;20054;-70
2021/08/05 03:44:58;;;;;;;37.88;27.45;;;;;;;;;;4984606;28;20354;-70
2021/08/05 03:47:24;;;;;;;36.45;28.00;;;;;;;;;;5038880;28;20094;-70
2021/08/05 03:49:50;;;;;;;39.85;29.58;;;;;;;;;;5012177;28;20038;-70
2021/08/05 03:52:16;;;;;;;38.42;28.90;;;;;;;;;;5008453;28;20054;-71
2021/08/05 03:54:42;;;;;;;40.15;29.13;;;;;;;;;;5019311;28;20025;-70
2021/08/05 03:57:08;;;;;;;43.03;29.95;;;;;;;;;;5011028;28;20074;-70
2021/08/05 03:59:34;;;;;;;41.55;29.33;;;;;;;;;;5011423;28;20046;-70
2021/08/05 04:02:00;;;;;;;41.92;28.42;;;;;;;;;;5043712;28;20045;-70
2021/08/05 04:04:26;;;;;;;43.25;29.75;;;;;;;;;;5023287;28;20037;-70
2021/08/05 04:06:54;;;;;;;38.88;27.77;;;;;;;;;;4991552;28;20057;-70
2021/08/05 04:09:20;;;;;;;42.05;29.10;;;;;;;;;;4989763;28;20134;-70
2021/08/05 04:11:46;;;;;;;44.00;31.17;;;;;;;;;;4999242;28;20073;-70
2021/08/05 04:14:12;;;;;;;43.08;30.33;;;;;;;;;;4988476;28;20034;-70
2021/08/05 04:16:39;;;;;;;44.65;31.92;;;;;;;;;;4994849;28;20102;-70
2021/08/05 04:19:05;;;;;;;41.47;30.85;;;;;;;;;;4988488;28;20105;-70
2021/08/05 04:21:31;;;;;;;41.20;30.27;;;;;;;;;;4992350;28;20531;-70
2021/08/05 04:23:57;;;;;;;41.92;30.50;;;;;;;;;;4992174;28;20017;-70
2021/08/05 04:26:23;;;;;;;42.70;31.48;;;;;;;;;;4991702;28;20509;-70
2021/08/05 04:28:49;;;;;;;44.67;31.33;;;;;;;;;;4990895;28;20039;-70
2021/08/05 04:31:15;;;;;;;49.50;32.97;;;;;;;;;;5002761;28;20034;-70
2021/08/05 04:33:41;;;;;;;40.92;30.30;;;;;;;;;;4995441;28;20034;-70
2021/08/05 04:36:06;;;;;;;46.42;32.08;;;;;;;;;;4991501;28;20030;-70
2021/08/05 04:38:32;;;;;;;44.42;31.15;;;;;;;;;;5003602;28;20364;-70
2021/08/05 04:40:58;;;;;;;43.05;31.95;;;;;;;;;;4992303;28;20029;-70
2021/08/05 04:43:24;;;;;;;41.22;31.25;;;;;;;;;;5042961;28;20037;-70
2021/08/05 04:45:50;;;;;;;40.17;29.00;;;;;;;;;;5011572;28;20097;-70
2021/08/05 04:48:16;;;;;;;39.97;29.45;;;;;;;;;;5001372;28;20030;-70
2021/08/05 04:50:43;;;;;;;39.70;28.23;;;;;;;;;;4993014;28;20518;-70
2021/08/05 04:53:10;;;;;;;40.38;27.73;;;;;;;;;;4991140;28;20141;-70
2021/08/05 04:55:36;;;;;;;38.65;28.75;;;;;;;;;;4991212;28;20034;-70
2021/08/05 04:58:06;;;;;;;41.42;29.70;;;;;;;;;;4997105;28;20033;-70
2021/08/05 05:00:32;;;;;;;39.60;28.42;;;;;;;;;;4991952;28;20026;-70
2021/08/05 05:02:59;;;;;;;35.72;27.40;;;;;;;;;;4990920;28;20032;-70
2021/08/05 05:05:25;;;;;;;37.92;27.98;;;;;;;;;;4995334;28;20069;-70
2021/08/05 05:07:51;;;;;;;38.70;29.50;;;;;;;;;;5029481;28;20076;-70
2021/08/05 05:10:17;;;;;;;38.88;29.42;;;;;;;;;;4984324;28;20050;-70
2021/08/05 05:12:44;;;;;;;35.33;27.02;;;;;;;;;;4980920;28;20491;-70
2021/08/05 05:15:10;;;;;;;36.60;26.30;;;;;;;;;;4995378;28;20045;-70
2021/08/05 05:17:37;;;;;;;31.70;24.65;;;;;;;;;;4984544;28;20468;-70
2021/08/05 05:20:04;;;;;;;33.40;25.55;;;;;;;;;;4988133;28;20018;-70
2021/08/05 05:22:30;;;;;;;35.08;25.17;;;;;;;;;;4996317;28;20053;-70
2021/08/05 05:24:56;;;;;;;32.83;26.55;;;;;;;;;;4987300;28;20464;-70
2021/08/05 05:27:22;;;;;;;33.08;25.85;;;;;;;;;;4990621;28;20619;-70
2021/08/05 05:29:48;;;;;;;34.50;25.98;;;;;;;;;;4994240;28;20058;-70
2021/08/05 05:32:14;;;;;;;32.80;24.17;;;;;;;;;;4991506;28;20530;-70
2021/08/05 05:34:41;;;;;;;32.20;24.88;;;;;;;;;;4992196;28;20488;-70
2021/08/05 05:37:07;;;;;;;32.70;25.20;;;;;;;;;;4986967;28;20101;-70
2021/08/05 05:39:33;;;;;;;34.83;24.65;;;;;;;;;;4991780;28;20522;-70
2021/08/05 05:41:59;;;;;;;30.92;23.90;;;;;;;;;;4994422;28;20451;-70
2021/08/05 05:44:25;;;;;;;35.65;24.10;;;;;;;;;;5026162;28;20108;-70
2021/08/05 05:46:51;;;;;;;30.58;23.58;;;;;;;;;;4991660;28;20033;-70
2021/08/05 05:49:17;;;;;;;30.83;23.25;;;;;;;;;;4990975;28;20069;-70
2021/08/05 05:51:43;;;;;;;32.03;24.38;;;;;;;;;;4989196;28;20550;-70
2021/08/05 05:54:09;;;;;;;32.10;24.08;;;;;;;;;;5030240;28;20025;-70
2021/08/05 05:56:34;;;;;;;30.35;23.38;;;;;;;;;;4995756;28;20346;-70
2021/08/05 05:59:00;;;;;;;28.17;23.50;;;;;;;;;;5012993;28;20026;-70
2021/08/05 06:01:26;;;;;;;29.70;24.30;;;;;;;;;;4990874;28;20392;-70
2021/08/05 06:03:52;;;;;;;32.60;25.15;;;;;;;;;;4991135;28;20420;-70
2021/08/05 06:06:18;;;;;;;30.23;24.65;;;;;;;;;;4992094;28;20435;-71
2021/08/05 06:08:44;;;;;;;28.63;23.15;;;;;;;;;;4993925;28;20133;-70
2021/08/05 06:11:10;;;;;;;28.10;23.45;;;;;;;;;;4993046;28;20109;-70
2021/08/05 06:13:36;;;;;;;30.58;23.58;;;;;;;;;;4985711;28;20031;-70
2021/08/05 06:16:02;;;;;;;28.30;21.98;;;;;;;;;;4990044;28;20058;-70
2021/08/05 06:18:28;;;;;;;29.90;22.00;;;;;;;;;;4986495;28;20919;-70
2021/08/05 06:20:54;;;;;;;25.38;21.83;;;;;;;;;;4989991;28;20387;-70
2021/08/05 06:23:20;;;;;;;27.98;22.45;;;;;;;;;;5021710;28;20492;-70
2021/08/05 06:25:45;;;;;;;30.50;23.17;;;;;;;;;;4996366;28;20041;-70
2021/08/05 06:28:11;;;;;;;28.00;23.20;;;;;;;;;;4990151;28;20030;-70
2021/08/05 06:30:37;;;;;;;25.27;21.48;;;;;;;;;;4995636;28;20045;-70
2021/08/05 06:33:03;;;;;;;26.35;21.67;;;;;;;;;;5002979;28;20042;-71
2021/08/05 06:35:29;;;;;;;29.30;22.25;;;;;;;;;;5006814;28;20062;-71
2021/08/05 06:37:55;;;;;;;26.33;21.80;;;;;;;;;;4996104;28;20096;-70
2021/08/05 06:40:21;;;;;;;26.20;21.20;;;;;;;;;;4993980;28;20114;-70
2021/08/05 06:42:47;;;;;;;23.98;19.83;;;;;;;;;;4990605;28;20057;-70
2021/08/05 06:45:14;;;;;;;23.00;18.55;;;;;;;;;;4989444;28;20488;-70
2021/08/05 06:47:41;;;;;;;25.58;20.60;;;;;;;;;;4989593;28;20488;-70
2021/08/05 06:50:08;;;;;;;22.48;19.00;;;;;;;;;;4988301;28;20471;-70
2021/08/05 06:52:34;;;;;;;20.90;18.30;;;;;;;;;;5003998;28;20031;-70
2021/08/05 06:55:00;;;;;;;23.20;18.05;;;;;;;;;;4993272;28;20041;-70
2021/08/05 06:57:25;;;;;;;20.85;17.10;;;;;;;;;;4993291;28;20030;-70
2021/08/05 06:59:51;;;;;;;22.23;17.90;;;;;;;;;;4989343;28;20027;-71
2021/08/05 07:02:17;;;;;;;18.90;16.15;;;;;;;;;;4979427;28;20034;-70
2021/08/05 07:04:43;;;;;;;22.08;17.88;;;;;;;;;;4979183;28;20576;-70
2021/08/05 07:07:09;;;;;;;20.50;18.05;;;;;;;;;;4988168;28;20070;-70
2021/08/05 07:09:35;;;;;;;23.95;19.13;;;;;;;;;;4990861;28;20038;-70
2021/08/05 07:12:01;;;;;;;20.65;16.80;;;;;;;;;;4980370;28;20157;-70
2021/08/05 07:14:27;;;;;;;18.08;16.13;;;;;;;;;;4979012;28;20045;-70
2021/08/05 07:16:53;;;;;;;20.17;16.58;;;;;;;;;;4994122;28;20380;-70
2021/08/05 07:19:19;;;;;;;16.15;14.55;;;;;;;;;;4987923;28;20161;-70
2021/08/05 07:21:45;;;;;;;17.00;14.88;;;;;;;;;;4997237;28;20030;-70
2021/08/05 07:24:12;;;;;;;17.45;15.48;;;;;;;;;;5019847;28;20072;-70
2021/08/05 07:26:38;;;;;;;20.98;16.77;;;;;;;;;;4983784;28;20411;-70
2021/08/05 07:29:04;;;;;;;16.10;14.35;;;;;;;;;;4985313;28;20038;-71
2021/08/05 07:31:30;;;;;;;20.70;14.95;;;;;;;;;;4986820;28;20086;-71
2021/08/05 07:33:56;;;;;;;19.25;14.23;;;;;;;;;;4978804;28;20129;-71
2021/08/05 07:36:23;;;;;;;17.52;13.50;;;;;;;;;;4973939;28;20022;-71
2021/08/05 07:38:49;;;;;;;20.60;15.43;;;;;;;;;;4975901;28;20520;-70
2021/08/05 07:41:15;;;;;;;17.80;13.82;;;;;;;;;;4983256;28;20042;-71
2021/08/05 07:43:41;;;;;;;16.88;13.35;;;;;;;;;;5012104;28;20030;-71
2021/08/05 07:46:07;;;;;;;17.73;13.38;;;;;;;;;;4988343;28;20049;-69
2021/08/05 07:48:34;;;;;;;17.17;13.55;;;;;;;;;;4988928;28;20037;-71
2021/08/05 07:51:00;;;;;;;17.52;11.98;;;;;;;;;;4995412;28;20029;-71
2021/08/05 07:53:26;;;;;;;13.70;11.98;;;;;;;;;;4988084;28;20077;-71
2021/08/05 07:55:52;;;;;;;13.95;10.93;;;;;;;;;;4987771;28;20054;-71
2021/08/05 07:58:18;;;;;;;13.52;10.38;;;;;;;;;;4987138;28;20399;-71
2021/08/05 08:00:44;;;;;;;12.02;10.73;;;;;;;;;;4986975;28;20057;-71
2021/08/05 08:03:11;;;;;;;15.95;12.63;;;;;;;;;;4989640;28;20030;-70
2021/08/05 08:05:38;;;;;;;14.07;12.38;;;;;;;;;;4987874;28;20395;-71
2021/08/05 08:08:04;;;;;;;12.93;10.65;;;;;;;;;;4984881;28;20040;-70
2021/08/05 08:10:30;;;;;;;15.68;10.10;;;;;;;;;;4999915;28;20041;-71
2021/08/05 08:12:56;;;;;;;15.82;11.32;;;;;;;;;;5002167;28;20026;-70
2021/08/05 08:15:24;;;;;;;14.40;11.32;;;;;;;;;;4989889;28;20040;-71
2021/08/05 08:17:50;;;;;;;12.77;11.07;;;;;;;;;;4989193;28;20030;-70
2021/08/05 08:20:17;;;;;;;14.32;10.25;;;;;;;;;;4987449;28;20066;-70
2021/08/05 08:22:43;;;;;;;12.60;9.88;;;;;;;;;;4984241;28;20923;-70
2021/08/05 08:25:09;;;;;;;13.02;9.60;;;;;;;;;;4984099;28;20551;-70
2021/08/05 08:27:35;;;;;;;11.27;8.65;;;;;;;;;;4989400;28;20054;-70
2021/08/05 08:30:01;;;;;;;9.90;7.72;;;;;;;;;;4984896;28;20116;-70
2021/08/05 08:32:27;;;;;;;9.55;7.32;;;;;;;;;;4987239;28;20031;-71
2021/08/05 08:34:54;;;;;;;9.05;7.80;;;;;;;;;;5022083;28;20113;-70
2021/08/05 08:37:20;;;;;;;11.35;8.55;;;;;;;;;;4989875;28;20476;-70
2021/08/05 08:39:46;;;;;;;11.02;7.95;;;;;;;;;;4984687;28;20021;-70
2021/08/05 08:42:16;;;;;;;13.43;9.10;;;;;;;;;;4980540;28;20582;-70
2021/08/05 08:44:42;;;;;;;8.75;7.15;;;;;;;;;;4983105;28;20085;-69
2021/08/05 08:47:08;;;;;;;8.57;7.07;;;;;;;;;;4992549;28;20026;-70
2021/08/05 08:49:34;;;;;;;9.23;8.20;;;;;;;;;;4993916;28;20034;-70
2021/08/05 08:52:00;;;;;;;9.10;7.85;;;;;;;;;;4990828;28;20034;-70
2021/08/05 08:54:26;;;;;;;8.75;7.50;;;;;;;;;;4989359;28;20057;-70
2021/08/05 08:56:53;;;;;;;10.05;7.38;;;;;;;;;;4984056;28;20527;-69
2021/08/05 08:59:19;;;;;;;8.98;7.55;;;;;;;;;;4987854;28;20026;-69
2021/08/05 09:01:45;;;;;;;7.85;7.00;;;;;;;;;;4988219;28;20072;-69
2021/08/05 09:04:11;;;;;;;12.00;7.55;;;;;;;;;;4993229;28;20488;-69
2021/08/05 09:06:37;;;;;;;9.40;7.47;;;;;;;;;;4992983;28;20034;-69
2021/08/05 09:09:07;;;;;;;12.90;6.93;;;;;;;;;;4984430;28;20050;-69
2021/08/05 09:11:33;;;;;;;7.40;6.35;;;;;;;;;;4993568;28;20026;-69
2021/08/05 09:13:59;;;;;;;6.40;5.22;;;;;;;;;;4992025;28;20300;-69
2021/08/05 09:16:25;;;;;;;8.43;6.00;;;;;;;;;;5029903;28;20104;-69
2021/08/05 09:18:51;;;;;;;7.25;5.30;;;;;;;;;;4990930;28;20464;-69
2021/08/05 09:21:21;;;;;;;8.07;5.93;;;;;;;;;;4987624;28;20036;-69
2021/08/05 09:23:51;;;;;;;9.68;6.55;;;;;;;;;;4990587;28;20014;-69
2021/08/05 09:26:24;;;;;;;9.35;5.90;;;;;;;;;;4987550;28;20030;-69
2021/08/05 09:29:00;;;;;;;6.15;5.38;;;;;;;;;;4989965;28;20073;-69
2021/08/05 09:31:27;;;;;;;8.10;7.05;;;;;;;;;;4988265;28;20857;-69
2021/08/05 09:33:59;;;;;;;9.45;6.80;;;;;;;;;;4990415;28;20483;-68
2021/08/05 09:36:27;;;;;;;7.47;6.78;;;;;;;;;;5001825;28;20379;-69
2021/08/05 09:38:53;;;;;;;5.57;4.85;;;;;;;;;;4988525;28;20117;-68
2021/08/05 09:41:20;;;;;;;9.77;5.38;;;;;;;;;;4990516;28;20446;-68
2021/08/05 09:43:46;;;;;;;6.72;5.15;;;;;;;;;;4989244;28;20021;-68
2021/08/05 09:46:15;;;;;;;8.50;6.57;;;;;;;;;;4988152;28;20030;-69
2021/08/05 09:48:42;;;;;;;6.55;5.85;;;;;;;;;;4990745;28;20022;-69
2021/08/05 09:51:10;;;;;;;8.52;6.43;;;;;;;;;;4987651;28;20475;-67
2021/08/05 09:53:52;;;;;;;7.93;6.10;;;;;;;;;;4989927;28;20754;-68
2021/08/05 09:56:18;;;;;;;7.15;5.55;;;;;;;;;;4984902;28;20026;-69
2021/08/05 09:58:44;;;;;;;8.52;7.20;;;;;;;;;;4988949;28;20030;-68
2021/08/05 10:01:10;;;;;;;11.73;7.60;;;;;;;;;;4989795;28;20038;-68
2021/08/05 10:03:38;;;;;;;9.18;7.22;;;;;;;;;;4989921;28;20042;-67
2021/08/05 10:06:06;;;;;;;11.63;8.00;;;;;;;;;;4990544;28;20073;-67
2021/08/05 10:08:36;;;;;;;9.68;7.38;;;;;;;;;;4988584;28;20074;-68
2021/08/05 10:11:03;;;;;;;10.52;8.30;;;;;;;;;;4989055;28;20088;-67
2021/08/05 10:13:30;;;;;;;10.68;8.30;;;;;;;;;;4989767;28;20031;-68
2021/08/05 10:15:56;;;;;;;11.95;9.15;;;;;;;;;;4989106;28;20037;-68
2021/08/05 10:18:26;;;;;;;11.25;7.18;;;;;;;;;;4988240;28;20026;-68
2021/08/05 10:20:52;;;;;;;12.40;8.85;;;;;;;;;;4972091;28;20061;-68
2021/08/05 10:23:18;;;;;;;9.32;8.05;;;;;;;;;;4975813;28;20031;-68
2021/08/05 10:25:44;;;;;;;10.88;8.05;;;;;;;;;;4980007;28;20121;-68
2021/08/05 10:28:13;;;;;;;9.63;7.60;;;;;;;;;;4977846;28;20044;-68
2021/08/05 10:30:39;;;;;;;8.70;7.10;;;;;;;;;;5014883;28;20027;-68
2021/08/05 10:33:07;;;;;;;9.98;7.30;;;;;;;;;;4988667;28;20506;-68
2021/08/05 10:35:33;;;;;;;8.15;5.45;;;;;;;;;;4988843;28;20522;-69
2021/08/05 10:38:00;;;;;;;7.63;5.70;;;;;;;;;;4989006;28;20026;-69
2021/08/05 10:40:27;;;;;;;9.00;6.05;;;;;;;;;;4985788;28;20045;-69
2021/08/05 10:42:55;;;;;;;12.55;5.35;;;;;;;;;;4985583;28;20026;-68
2021/08/05 10:45:22;;;;;;;6.47;4.18;;;;;;;;;;4981179;28;20027;-68
2021/08/05 10:47:49;;;;;;;6.85;5.38;;;;;;;;;;4978824;28;20121;-68
2021/08/05 10:50:17;;;;;;;7.40;4.72;;;;;;;;;;4977399;28;20161;-68
2021/08/05 10:52:44;;;;;;;4.20;3.45;;;;;;;;;;4986342;28;20411;-70
2021/08/05 10:55:16;;;;;;;6.38;2.90;;;;;;;;;;4985733;28;20361;-69
2021/08/05 10:57:46;;;;;;;4.95;3.95;;;;;;;;;;4990548;28;20097;-70
2021/08/05 11:00:14;;;;;;;9.15;6.13;;;;;;;;;;4978640;28;20492;-70
2021/08/05 11:02:50;;;;;;;7.85;4.95;;;;;;;;;;4975903;28;20358;-70
2021/08/05 11:05:25;;;;;;;9.90;7.03;;;;;;;;;;4972360;28;20035;-70
2021/08/05 11:07:54;;;;;;;8.73;7.80;;;;;;;;;;4975812;28;20477;-70
2021/08/05 11:10:25;;;;;;;9.77;7.35;;;;;;;;;;4978237;28;20093;-70
2021/08/05 11:13:16;;;;;;;8.75;6.60;;;;;;;;;;4975624;28;20381;-70
2021/08/05 11:15:42;;;;;;;7.18;6.45;;;;;;;;;;4983953;28;20041;-70
2021/08/05 11:18:08;;;;;;;11.40;7.53;;;;;;;;;;4972366;28;20397;-69
2021/08/05 11:20:34;;;;;;;8.80;6.43;;;;;;;;;;4973624;28;20257;-68
2021/08/05 11:23:00;;;;;;;15.45;8.35;;;;;;;;;;4975121;28;20030;-69
2021/08/05 11:25:26;;;;;;;10.75;8.05;;;;;;;;;;5004455;28;20057;-69
2021/08/05 11:28:18;;;;;;;9.77;8.68;;;;;;;;;;4976421;28;20023;-69
2021/08/05 11:30:46;;;;;;;11.02;7.70;;;;;;;;;;4985481;28;20037;-69
2021/08/05 11:33:30;;;;;;;12.70;8.10;;;;;;;;;;4988404;28;20072;-69
2021/08/05 11:36:16;;;;;;;11.07;7.63;;;;;;;;;;4994993;28;20027;-69
2021/08/05 11:39:01;;;;;;;11.52;8.35;;;;;;;;;;4986727;28;20014;-69
2021/08/05 11:41:43;;;;;;;8.18;6.70;;;;;;;;;;4989615;28;20033;-70
2021/08/05 11:44:21;;;;;;;11.75;8.35;;;;;;;;;;4982898;28;20161;-70
2021/08/05 11:46:49;;;;;;;7.93;6.95;;;;;;;;;;4989813;28;20042;-68
2021/08/05 11:49:33;;;;;;;9.20;5.13;;;;;;;;;;4990370;28;20165;-68
2021/08/05 11:51:59;;;;;;;6.32;5.57;;;;;;;;;;4985688;28;20034;-68
2021/08/05 11:54:26;;;;;;;5.95;4.70;;;;;;;;;;4991892;28;20039;-68
2021/08/05 11:57:08;;;;;;;5.72;4.75;;;;;;;;;;5021941;28;20165;-68
2021/08/05 11:59:35;;;;;;;6.75;6.05;;;;;;;;;;4997141;28;20550;-70
2021/08/05 12:02:14;;;;;;;6.88;5.50;;;;;;;;;;4996911;28;20503;-70
2021/08/05 12:04:41;;;;;;;8.40;5.97;;;;;;;;;;4989373;28;20031;-70
2021/08/05 12:07:16;;;;;;;7.03;5.53;;;;;;;;;;4990298;28;20022;-70
2021/08/05 12:09:42;;;;;;;5.97;4.82;;;;;;;;;;4989179;28;20359;-71
2021/08/05 12:12:08;;;;;;;7.68;5.13;;;;;;;;;;4991746;28;20023;-70
2021/08/05 12:14:34;;;;;;;6.40;5.13;;;;;;;;;;4979739;28;20037;-71
2021/08/05 12:17:01;;;;;;;11.98;6.30;;;;;;;;;;4977968;28;20023;-71
2021/08/05 12:19:29;;;;;;;7.97;5.72;;;;;;;;;;4977151;28;20098;-70
2021/08/05 12:21:55;;;;;;;6.97;6.20;;;;;;;;;;4973915;28;20385;-70
2021/08/05 12:24:24;;;;;;;8.40;6.22;;;;;;;;;;4979823;28;20595;-69
2021/08/05 12:27:00;;;;;;;9.23;5.50;;;;;;;;;;4987016;28;20026;-69
2021/08/05 12:29:26;;;;;;;6.18;5.25;;;;;;;;;;4975093;28;20058;-70
2021/08/05 12:31:52;;;;;;;6.72;5.38;;;;;;;;;;4975786;28;20061;-69
2021/08/05 12:34:19;;;;;;;6.88;5.18;;;;;;;;;;4975331;28;20030;-71
2021/08/05 12:36:45;;;;;;;9.27;7.05;;;;;;;;;;4978368;28;20065;-69
2021/08/05 12:39:11;;;;;;;8.88;6.68;;;;;;;;;;4989066;28;20042;-69
2021/08/05 12:41:50;;;;;;;7.65;6.47;;;;;;;;;;4977887;28;20035;-69
2021/08/05 12:44:20;;;;;;;7.95;6.28;;;;;;;;;;4975207;28;20057;-69
2021/08/05 12:46:47;;;;;;;9.90;7.03;;;;;;;;;;4977366;28;20057;-69
2021/08/05 12:49:14;;;;;;;12.73;9.48;;;;;;;;;;4975860;28;20031;-69
2021/08/05 12:51:40;;;;;;;14.57;9.35;;;;;;;;;;4973658;28;20077;-69
2021/08/05 12:54:16;;;;;;;10.98;9.00;;;;;;;;;;4974818;28;20070;-69
2021/08/05 12:56:43;;;;;;;10.23;9.10;;;;;;;;;;4975084;28;20038;-69
2021/08/05 12:59:09;;;;;;;11.43;8.45;;;;;;;;;;4990110;28;20031;-69
2021/08/05 13:01:35;;;;;;;13.13;10.07;;;;;;;;;;4976886;28;20097;-69
2021/08/05 13:04:02;;;;;;;10.75;9.25;;;;;;;;;;4975092;28;20046;-69
2021/08/05 13:06:48;;;;;;;12.57;11.05;;;;;;;;;;4976858;28;20022;-69
2021/08/05 13:09:14;;;;;;;11.60;9.82;;;;;;;;;;4974506;28;20027;-70
2021/08/05 13:11:40;;;;;;;13.35;9.55;;;;;;;;;;4975675;28;20031;-69
2021/08/05 13:14:07;;;;;;;13.85;9.02;;;;;;;;;;4986635;28;20487;-69
2021/08/05 13:16:34;;;;;;;11.13;7.88;;;;;;;;;;4986754;28;20061;-69
2021/08/05 13:19:01;;;;;;;8.52;7.63;;;;;;;;;;4986975;28;20022;-70
2021/08/05 13:21:27;;;;;;;9.10;7.80;;;;;;;;;;4990270;28;20026;-70
2021/08/05 13:23:53;;;;;;;7.63;6.82;;;;;;;;;;4984180;28;20026;-69
2021/08/05 13:26:32;;;;;;;7.95;7.15;;;;;;;;;;4983684;28;20128;-69
2021/08/05 13:28:58;;;;;;;8.70;7.55;;;;;;;;;;4990434;28;20032;-70
2021/08/05 13:31:24;;;;;;;10.35;9.25;;;;;;;;;;4986442;28;20112;-70
2021/08/05 13:34:09;;;;;;;10.10;8.07;;;;;;;;;;4986700;28;20085;-69
2021/08/05 13:36:36;;;;;;;8.35;6.80;;;;;;;;;;4986609;28;20026;-70
2021/08/05 13:39:02;;;;;;;8.63;7.30;;;;;;;;;;4988397;28;20468;-70
2021/08/05 13:41:28;;;;;;;7.60;6.38;;;;;;;;;;4988028;28;20036;-69
2021/08/05 13:43:54;;;;;;;9.48;7.78;;;;;;;;;;4988175;28;20046;-69
2021/08/05 13:46:23;;;;;;;9.45;6.50;;;;;;;;;;5000142;28;20062;-70
2021/08/05 13:48:52;;;;;;;8.60;7.38;;;;;;;;;;4992289;28;20030;-69
2021/08/05 13:51:18;;;;;;;8.45;6.50;;;;;;;;;;4988752;28;20042;-69
2021/08/05 13:53:44;;;;;;;10.50;7.18;;;;;;;;;;4988361;28;20510;-70
2021/08/05 13:56:10;;;;;;;8.68;6.85;;;;;;;;;;4992051;28;20038;-69
2021/08/05 13:58:36;;;;;;;9.88;7.45;;;;;;;;;;4991490;28;20018;-69
2021/08/05 14:01:02;;;;;;;10.88;9.07;;;;;;;;;;4983331;28;20472;-69
2021/08/05 14:03:29;;;;;;;10.07;9.07;;;;;;;;;;4987138;28;20022;-69
2021/08/05 14:05:55;;;;;;;10.23;7.75;;;;;;;;;;4990457;28;20026;-69
2021/08/05 14:08:21;;;;;;;12.52;9.80;;;;;;;;;;4984802;28;20809;-69
2021/08/05 14:10:47;;;;;;;13.30;10.52;;;;;;;;;;4989516;28;20026;-69
2021/08/05 14:13:13;;;;;;;11.43;9.35;;;;;;;;;;4987729;28;20034;-69
2021/08/05 14:15:39;;;;;;;12.38;7.68;;;;;;;;;;4983132;28;20034;-70
2021/08/05 14:18:05;;;;;;;13.77;9.55;;;;;;;;;;4982617;28;20019;-70
2021/08/05 14:20:31;;;;;;;11.70;9.77;;;;;;;;;;4979487;28;20070;-69
2021/08/05 14:22:58;;;;;;;13.38;9.50;;;;;;;;;;4984006;28;20080;-70
2021/08/05 14:25:24;;;;;;;12.80;9.27;;;;;;;;;;4981471;28;20606;-70
2021/08/05 14:27:50;;;;;;;12.85;9.93;;;;;;;;;;4979581;28;20030;-69